sensor_id;sensor_type;location;lat;lon;timestamp;pressure;altitude;pressure_sealevel;temperature;humidity
43119;BME280;28729;49.838;8.650;2023-06-26T00:00:20;99620.88;;;22.33;55.92
43119;BME280;28729;49.838;8.650;2023-06-26T00:04:22;99617.44;;;22.27;56.07
43119;BME280;28729;49.838;8.650;2023-06-26T00:08:24;99616.09;;;22.24;56.08
43119;BME280;28729;49.838;8.650;2023-06-26T00:12:26;99618.25;;;22.19;56.31
43119;BME280;28729;49.838;8.650;2023-06-26T00:16:28;99618.88;;;22.16;56.21
43119;BME280;28729;49.838;8.650;2023-06-26T00:20:30;99622.72;;;22.11;56.19
43119;BME280;28729;49.838;8.650;2023-06-26T00:24:35;99610.00;;;22.05;57.05
43119;BME280;28729;49.838;8.650;2023-06-26T00:28:37;99616.44;;;21.97;57.45
43119;BME280;28729;49.838;8.650;2023-06-26T00:32:39;99620.56;;;21.91;57.81
43119;BME280;28729;49.838;8.650;2023-06-26T00:36:41;99615.78;;;21.82;58.35
43119;BME280;28729;49.838;8.650;2023-06-26T00:40:45;99617.44;;;21.75;58.60
43119;BME280;28729;49.838;8.650;2023-06-26T00:44:46;99612.66;;;21.67;59.26
43119;BME280;28729;49.838;8.650;2023-06-26T00:48:49;99628.28;;;21.59;59.74
43119;BME280;28729;49.838;8.650;2023-06-26T00:52:51;99620.72;;;21.51;60.18
43119;BME280;28729;49.838;8.650;2023-06-26T00:56:53;99616.56;;;21.39;60.83
43119;BME280;28729;49.838;8.650;2023-06-26T01:00:55;99619.31;;;21.31;61.67
43119;BME280;28729;49.838;8.650;2023-06-26T01:04:57;99613.69;;;21.22;62.05
43119;BME280;28729;49.838;8.650;2023-06-26T01:08:59;99611.69;;;21.14;62.29
43119;BME280;28729;49.838;8.650;2023-06-26T01:13:02;99604.06;;;21.06;62.91
43119;BME280;28729;49.838;8.650;2023-06-26T01:17:04;99601.75;;;20.99;63.16
43119;BME280;28729;49.838;8.650;2023-06-26T01:21:05;99602.88;;;20.89;63.82
43119;BME280;28729;49.838;8.650;2023-06-26T01:29:32;99591.28;;;20.74;65.65
43119;BME280;28729;49.838;8.650;2023-06-26T01:33:34;99592.06;;;20.65;66.73
43119;BME280;28729;49.838;8.650;2023-06-26T01:37:36;99592.84;;;20.57;67.35
43119;BME280;28729;49.838;8.650;2023-06-26T01:41:38;99590.19;;;20.52;67.44
43119;BME280;28729;49.838;8.650;2023-06-26T01:45:40;99577.13;;;20.47;67.47
43119;BME280;28729;49.838;8.650;2023-06-26T01:54:05;99577.25;;;20.42;67.45
43119;BME280;28729;49.838;8.650;2023-06-26T01:58:10;99576.75;;;20.40;68.29
43119;BME280;28729;49.838;8.650;2023-06-26T02:02:12;99583.19;;;20.41;68.51
43119;BME280;28729;49.838;8.650;2023-06-26T02:06:14;99574.28;;;20.39;68.66
43119;BME280;28729;49.838;8.650;2023-06-26T02:10:16;99579.06;;;20.38;68.92
43119;BME280;28729;49.838;8.650;2023-06-26T02:14:17;99581.34;;;20.36;68.99
43119;BME280;28729;49.838;8.650;2023-06-26T02:18:19;99580.84;;;20.34;69.60
43119;BME280;28729;49.838;8.650;2023-06-26T02:22:23;99575.88;;;20.31;69.78
43119;BME280;28729;49.838;8.650;2023-06-26T02:26:25;99582.97;;;20.29;70.65
43119;BME280;28729;49.838;8.650;2023-06-26T02:30:27;99584.91;;;20.28;71.02
43119;BME280;28729;49.838;8.650;2023-06-26T02:34:29;99578.84;;;20.26;70.70
43119;BME280;28729;49.838;8.650;2023-06-26T02:38:31;99570.22;;;20.22;71.43
43119;BME280;28729;49.838;8.650;2023-06-26T02:42:36;99570.88;;;20.19;71.06
43119;BME280;28729;49.838;8.650;2023-06-26T02:46:39;99578.78;;;20.17;71.41
43119;BME280;28729;49.838;8.650;2023-06-26T02:50:42;99569.34;;;20.13;71.45
43119;BME280;28729;49.838;8.650;2023-06-26T02:54:48;99573.13;;;20.09;71.62
43119;BME280;28729;49.838;8.650;2023-06-26T02:58:50;99571.09;;;20.00;71.79
43119;BME280;28729;49.838;8.650;2023-06-26T03:02:52;99584.72;;;19.93;71.96
43119;BME280;28729;49.838;8.650;2023-06-26T03:06:56;99583.28;;;19.82;72.98
43119;BME280;28729;49.838;8.650;2023-06-26T03:10:58;99590.16;;;19.76;73.91
43119;BME280;28729;49.838;8.650;2023-06-26T03:15:00;99581.88;;;19.71;74.32
43119;BME280;28729;49.838;8.650;2023-06-26T03:19:02;99589.25;;;19.67;74.28
43119;BME280;28729;49.838;8.650;2023-06-26T03:23:10;99585.09;;;19.64;74.81
43119;BME280;28729;49.838;8.650;2023-06-26T03:27:11;99587.06;;;19.64;74.54
43119;BME280;28729;49.838;8.650;2023-06-26T03:31:13;99585.41;;;19.63;75.60
43119;BME280;28729;49.838;8.650;2023-06-26T03:35:15;99579.81;;;19.63;75.56
43119;BME280;28729;49.838;8.650;2023-06-26T03:39:17;99580.97;;;19.62;75.93
43119;BME280;28729;49.838;8.650;2023-06-26T03:43:19;99589.66;;;19.60;76.38
43119;BME280;28729;49.838;8.650;2023-06-26T03:47:39;99588.34;;;19.57;76.52
43119;BME280;28729;49.838;8.650;2023-06-26T03:51:41;99586.66;;;19.56;77.46
43119;BME280;28729;49.838;8.650;2023-06-26T03:55:42;99585.00;;;19.55;77.41
43119;BME280;28729;49.838;8.650;2023-06-26T03:59:44;99585.84;;;19.56;77.54
43119;BME280;28729;49.838;8.650;2023-06-26T04:03:46;99589.78;;;19.55;77.35
43119;BME280;28729;49.838;8.650;2023-06-26T04:07:52;99592.56;;;19.55;77.97
43119;BME280;28729;49.838;8.650;2023-06-26T04:11:54;99603.44;;;19.56;77.73
43119;BME280;28729;49.838;8.650;2023-06-26T04:15:56;99606.75;;;19.58;77.39
43119;BME280;28729;49.838;8.650;2023-06-26T04:19:58;99597.72;;;19.62;77.85
43119;BME280;28729;49.838;8.650;2023-06-26T04:24:00;99609.13;;;19.65;77.14
43119;BME280;28729;49.838;8.650;2023-06-26T04:28:01;99599.81;;;19.70;76.71
43119;BME280;28729;49.838;8.650;2023-06-26T04:32:03;99595.22;;;19.74;76.73
43119;BME280;28729;49.838;8.650;2023-06-26T04:36:06;99597.38;;;19.77;76.30
43119;BME280;28729;49.838;8.650;2023-06-26T04:40:08;99600.19;;;19.77;76.72
43119;BME280;28729;49.838;8.650;2023-06-26T04:44:11;99600.06;;;19.82;76.30
43119;BME280;28729;49.838;8.650;2023-06-26T04:48:13;99594.66;;;19.86;77.29
43119;BME280;28729;49.838;8.650;2023-06-26T04:52:15;99597.66;;;19.89;77.03
43119;BME280;28729;49.838;8.650;2023-06-26T04:56:17;99604.28;;;19.93;77.27
43119;BME280;28729;49.838;8.650;2023-06-26T05:00:19;99604.47;;;19.97;78.08
43119;BME280;28729;49.838;8.650;2023-06-26T05:04:22;99591.81;;;19.99;77.95
43119;BME280;28729;49.838;8.650;2023-06-26T05:08:24;99600.91;;;20.05;78.14
43119;BME280;28729;49.838;8.650;2023-06-26T05:12:28;99587.13;;;20.09;78.39
43119;BME280;28729;49.838;8.650;2023-06-26T05:16:30;99596.22;;;20.14;78.55
43119;BME280;28729;49.838;8.650;2023-06-26T05:20:32;99600.19;;;20.22;78.81
43119;BME280;28729;49.838;8.650;2023-06-26T05:24:35;99602.22;;;20.30;78.99
43119;BME280;28729;49.838;8.650;2023-06-26T05:28:38;99600.41;;;20.34;79.49
43119;BME280;28729;49.838;8.650;2023-06-26T05:32:40;99593.25;;;20.42;79.24
43119;BME280;28729;49.838;8.650;2023-06-26T05:36:43;99591.66;;;20.49;79.77
43119;BME280;28729;49.838;8.650;2023-06-26T05:40:46;99587.44;;;20.61;79.68
43119;BME280;28729;49.838;8.650;2023-06-26T05:44:49;99594.22;;;20.68;80.14
43119;BME280;28729;49.838;8.650;2023-06-26T05:48:51;99598.72;;;20.78;80.66
43119;BME280;28729;49.838;8.650;2023-06-26T05:52:53;99591.69;;;20.89;80.29
43119;BME280;28729;49.838;8.650;2023-06-26T05:56:58;99598.00;;;21.04;79.63
43119;BME280;28729;49.838;8.650;2023-06-26T06:01:01;99591.28;;;21.22;78.67
43119;BME280;28729;49.838;8.650;2023-06-26T06:05:07;99598.09;;;21.38;78.02
43119;BME280;28729;49.838;8.650;2023-06-26T06:09:12;99591.38;;;21.57;77.91
43119;BME280;28729;49.838;8.650;2023-06-26T06:13:16;99590.22;;;21.75;76.81
43119;BME280;28729;49.838;8.650;2023-06-26T06:17:21;99597.16;;;21.95;76.07
43119;BME280;28729;49.838;8.650;2023-06-26T06:21:27;99602.06;;;22.16;75.78
43119;BME280;28729;49.838;8.650;2023-06-26T06:25:29;99594.66;;;22.28;74.50
43119;BME280;28729;49.838;8.650;2023-06-26T06:29:31;99599.72;;;22.44;74.09
43119;BME280;28729;49.838;8.650;2023-06-26T06:33:33;99595.72;;;22.62;73.03
43119;BME280;28729;49.838;8.650;2023-06-26T06:37:38;99587.38;;;22.83;72.22
43119;BME280;28729;49.838;8.650;2023-06-26T06:41:41;99592.13;;;23.00;71.51
43119;BME280;28729;49.838;8.650;2023-06-26T06:45:44;99591.69;;;23.19;71.01
43119;BME280;28729;49.838;8.650;2023-06-26T06:49:52;99584.09;;;23.40;69.90
43119;BME280;28729;49.838;8.650;2023-06-26T06:53:54;99575.47;;;23.66;69.21
43119;BME280;28729;49.838;8.650;2023-06-26T06:57:56;99566.84;;;23.93;66.36
43119;BME280;28729;49.838;8.650;2023-06-26T07:01:58;99575.28;;;24.26;63.67
43119;BME280;28729;49.838;8.650;2023-06-26T07:06:01;99578.91;;;24.60;61.86
43119;BME280;28729;49.838;8.650;2023-06-26T07:10:08;99581.78;;;24.96;59.63
43119;BME280;28729;49.838;8.650;2023-06-26T07:14:12;99584.38;;;25.26;58.30
43119;BME280;28729;49.838;8.650;2023-06-26T07:18:14;99578.19;;;25.61;55.54
43119;BME280;28729;49.838;8.650;2023-06-26T07:22:18;99574.00;;;25.95;52.37
43119;BME280;28729;49.838;8.650;2023-06-26T07:26:21;99569.53;;;26.22;50.67
43119;BME280;28729;49.838;8.650;2023-06-26T07:30:40;99567.38;;;26.47;49.50
43119;BME280;28729;49.838;8.650;2023-06-26T07:34:43;99570.66;;;26.77;48.64
43119;BME280;28729;49.838;8.650;2023-06-26T07:38:45;99573.00;;;27.07;46.75
43119;BME280;28729;49.838;8.650;2023-06-26T07:42:47;99576.53;;;27.36;46.80
43119;BME280;28729;49.838;8.650;2023-06-26T07:46:49;99581.31;;;27.51;44.92
43119;BME280;28729;49.838;8.650;2023-06-26T07:50:51;99592.97;;;27.65;45.72
43119;BME280;28729;49.838;8.650;2023-06-26T07:54:55;99592.84;;;27.78;45.05
43119;BME280;28729;49.838;8.650;2023-06-26T07:58:58;99597.56;;;27.89;44.91
43119;BME280;28729;49.838;8.650;2023-06-26T08:03:00;99595.56;;;28.09;45.20
43119;BME280;28729;49.838;8.650;2023-06-26T08:07:03;99595.63;;;28.32;44.70
43119;BME280;28729;49.838;8.650;2023-06-26T08:11:06;99600.84;;;28.30;43.91
43119;BME280;28729;49.838;8.650;2023-06-26T08:15:15;99604.56;;;28.34;44.03
43119;BME280;28729;49.838;8.650;2023-06-26T08:19:17;99606.25;;;28.58;43.54
43119;BME280;28729;49.838;8.650;2023-06-26T08:23:20;99600.66;;;28.85;43.29
43119;BME280;28729;49.838;8.650;2023-06-26T08:27:27;99607.25;;;29.39;41.84
43119;BME280;28729;49.838;8.650;2023-06-26T08:31:32;99603.38;;;30.07;39.80
43119;BME280;28729;49.838;8.650;2023-06-26T08:35:36;99608.63;;;30.35;38.04
43119;BME280;28729;49.838;8.650;2023-06-26T08:39:38;99605.28;;;30.26;38.12
43119;BME280;28729;49.838;8.650;2023-06-26T08:43:41;99622.66;;;30.21;38.88
43119;BME280;28729;49.838;8.650;2023-06-26T08:47:47;99610.53;;;30.61;38.24
43119;BME280;28729;49.838;8.650;2023-06-26T08:52:23;99614.47;;;30.50;38.23
43119;BME280;28729;49.838;8.650;2023-06-26T08:56:36;99626.84;;;30.01;37.89
43119;BME280;28729;49.838;8.650;2023-06-26T09:00:41;99628.56;;;29.52;38.89
43119;BME280;28729;49.838;8.650;2023-06-26T09:04:44;99624.38;;;29.69;39.18
43119;BME280;28729;49.838;8.650;2023-06-26T09:08:48;99620.81;;;30.06;38.30
43119;BME280;28729;49.838;8.650;2023-06-26T09:12:55;99613.75;;;30.23;37.68
43119;BME280;28729;49.838;8.650;2023-06-26T09:16:58;99608.38;;;30.51;37.96
43119;BME280;28729;49.838;8.650;2023-06-26T09:21:06;99606.91;;;30.64;36.82
43119;BME280;28729;49.838;8.650;2023-06-26T09:25:09;99616.69;;;30.67;36.07
43119;BME280;28729;49.838;8.650;2023-06-26T09:29:13;99609.72;;;30.61;36.55
43119;BME280;28729;49.838;8.650;2023-06-26T09:33:20;99605.31;;;30.67;36.49
43119;BME280;28729;49.838;8.650;2023-06-26T09:37:23;99624.22;;;30.86;36.37
43119;BME280;28729;49.838;8.650;2023-06-26T09:41:25;99619.22;;;30.76;35.70
43119;BME280;28729;49.838;8.650;2023-06-26T09:45:28;99616.59;;;30.97;36.24
43119;BME280;28729;49.838;8.650;2023-06-26T09:49:30;99617.22;;;31.21;35.96
43119;BME280;28729;49.838;8.650;2023-06-26T09:53:35;99616.03;;;31.25;35.08
43119;BME280;28729;49.838;8.650;2023-06-26T09:57:38;99623.13;;;31.49;34.71
43119;BME280;28729;49.838;8.650;2023-06-26T10:01:45;99621.72;;;31.81;34.68
43119;BME280;28729;49.838;8.650;2023-06-26T10:05:49;99625.34;;;31.74;34.97
43119;BME280;28729;49.838;8.650;2023-06-26T10:09:55;99629.38;;;31.69;34.88
43119;BME280;28729;49.838;8.650;2023-06-26T10:13:58;99624.09;;;31.16;35.44
43119;BME280;28729;49.838;8.650;2023-06-26T10:18:18;99630.53;;;30.72;36.75
43119;BME280;28729;49.838;8.650;2023-06-26T10:22:21;99628.25;;;30.48;37.12
43119;BME280;28729;49.838;8.650;2023-06-26T10:26:26;99630.31;;;30.51;36.93
43119;BME280;28729;49.838;8.650;2023-06-26T10:30:33;99635.22;;;30.54;37.92
43119;BME280;28729;49.838;8.650;2023-06-26T10:34:37;99631.84;;;30.78;36.95
43119;BME280;28729;49.838;8.650;2023-06-26T10:39:03;99639.84;;;30.69;37.55
43119;BME280;28729;49.838;8.650;2023-06-26T10:43:13;99633.28;;;31.43;36.77
43119;BME280;28729;49.838;8.650;2023-06-26T10:47:32;99637.78;;;32.07;34.74
43119;BME280;28729;49.838;8.650;2023-06-26T10:51:35;99635.09;;;31.76;35.89
43119;BME280;28729;49.838;8.650;2023-06-26T10:55:39;99623.09;;;32.01;35.75
43119;BME280;28729;49.838;8.650;2023-06-26T10:59:43;99633.41;;;32.34;34.40
43119;BME280;28729;49.838;8.650;2023-06-26T11:08:07;99628.38;;;31.44;35.36
43119;BME280;28729;49.838;8.650;2023-06-26T11:12:10;99639.28;;;30.90;36.77
43119;BME280;28729;49.838;8.650;2023-06-26T11:16:13;99623.13;;;30.98;37.00
43119;BME280;28729;49.838;8.650;2023-06-26T11:20:18;99617.16;;;31.65;36.08
43119;BME280;28729;49.838;8.650;2023-06-26T11:24:20;99616.69;;;32.33;34.96
43119;BME280;28729;49.838;8.650;2023-06-26T11:28:22;99616.09;;;33.11;33.10
43119;BME280;28729;49.838;8.650;2023-06-26T11:32:26;99617.69;;;33.37;33.13
43119;BME280;28729;49.838;8.650;2023-06-26T11:36:30;99615.66;;;33.09;33.62
43119;BME280;28729;49.838;8.650;2023-06-26T11:40:33;99624.03;;;32.41;33.66
43119;BME280;28729;49.838;8.650;2023-06-26T11:44:41;99628.25;;;32.79;33.32
43119;BME280;28729;49.838;8.650;2023-06-26T11:48:44;99636.16;;;32.13;33.72
43119;BME280;28729;49.838;8.650;2023-06-26T11:52:54;99631.28;;;32.17;34.05
43119;BME280;28729;49.838;8.650;2023-06-26T11:56:59;99635.16;;;32.75;32.92
43119;BME280;28729;49.838;8.650;2023-06-26T12:01:01;99624.63;;;33.07;31.72
43119;BME280;28729;49.838;8.650;2023-06-26T12:05:05;99634.78;;;32.76;31.30
43119;BME280;28729;49.838;8.650;2023-06-26T12:09:09;99641.72;;;32.79;31.73
43119;BME280;28729;49.838;8.650;2023-06-26T12:13:13;99624.19;;;32.87;30.67
43119;BME280;28729;49.838;8.650;2023-06-26T12:17:15;99630.75;;;33.31;30.71
43119;BME280;28729;49.838;8.650;2023-06-26T12:25:41;99628.81;;;34.52;28.67
43119;BME280;28729;49.838;8.650;2023-06-26T12:29:51;99625.56;;;35.16;27.51
43119;BME280;28729;49.838;8.650;2023-06-26T12:33:58;99625.97;;;35.18;27.13
43119;BME280;28729;49.838;8.650;2023-06-26T12:38:07;99629.75;;;35.94;26.52
43119;BME280;28729;49.838;8.650;2023-06-26T12:42:16;99632.41;;;35.74;26.10
43119;BME280;28729;49.838;8.650;2023-06-26T12:46:18;99625.22;;;35.10;26.75
43119;BME280;28729;49.838;8.650;2023-06-26T12:50:21;99631.66;;;36.08;25.23
43119;BME280;28729;49.838;8.650;2023-06-26T12:54:23;99629.88;;;36.21;24.29
43119;BME280;28729;49.838;8.650;2023-06-26T12:58:25;99617.31;;;35.70;25.50
43119;BME280;28729;49.838;8.650;2023-06-26T13:02:27;99621.38;;;35.28;25.13
43119;BME280;28729;49.838;8.650;2023-06-26T13:06:29;99614.78;;;35.79;24.62
43119;BME280;28729;49.838;8.650;2023-06-26T13:10:31;99608.13;;;36.55;24.51
43119;BME280;28729;49.838;8.650;2023-06-26T13:14:33;99624.56;;;37.32;22.65
43119;BME280;28729;49.838;8.650;2023-06-26T13:18:37;99622.69;;;36.67;22.61
43119;BME280;28729;49.838;8.650;2023-06-26T13:22:39;99620.88;;;36.19;23.01
43119;BME280;28729;49.838;8.650;2023-06-26T13:26:43;99618.69;;;35.93;22.53
43119;BME280;28729;49.838;8.650;2023-06-26T13:30:47;99631.97;;;35.31;22.81
43119;BME280;28729;49.838;8.650;2023-06-26T13:34:50;99624.69;;;34.67;23.58
43119;BME280;28729;49.838;8.650;2023-06-26T13:38:52;99638.00;;;34.00;23.84
43119;BME280;28729;49.838;8.650;2023-06-26T13:42:57;99632.00;;;34.75;23.01
43119;BME280;28729;49.838;8.650;2023-06-26T13:47:00;99622.63;;;36.10;21.34
43119;BME280;28729;49.838;8.650;2023-06-26T13:51:02;99622.75;;;36.64;21.46
43119;BME280;28729;49.838;8.650;2023-06-26T13:55:04;99643.25;;;37.20;20.88
43119;BME280;28729;49.838;8.650;2023-06-26T13:59:06;99640.50;;;36.86;20.29
43119;BME280;28729;49.838;8.650;2023-06-26T14:03:10;99646.44;;;36.07;21.35
43119;BME280;28729;49.838;8.650;2023-06-26T14:07:13;99637.22;;;35.39;21.71
43119;BME280;28729;49.838;8.650;2023-06-26T14:11:16;99650.72;;;34.83;22.03
43119;BME280;28729;49.838;8.650;2023-06-26T14:15:20;99645.31;;;34.22;22.77
43119;BME280;28729;49.838;8.650;2023-06-26T14:19:23;99655.78;;;34.58;22.29
43119;BME280;28729;49.838;8.650;2023-06-26T14:23:27;99653.34;;;34.49;21.03
43119;BME280;28729;49.838;8.650;2023-06-26T14:27:30;99668.81;;;34.69;20.61
43119;BME280;28729;49.838;8.650;2023-06-26T14:31:34;99656.78;;;35.93;20.60
43119;BME280;28729;49.838;8.650;2023-06-26T14:35:36;99665.19;;;37.34;19.61
43119;BME280;28729;49.838;8.650;2023-06-26T14:39:38;99663.78;;;37.69;19.49
43119;BME280;28729;49.838;8.650;2023-06-26T14:43:41;99651.69;;;37.78;19.21
43119;BME280;28729;49.838;8.650;2023-06-26T14:47:44;99672.41;;;37.18;19.45
43119;BME280;28729;49.838;8.650;2023-06-26T14:51:47;99656.94;;;36.20;20.10
43119;BME280;28729;49.838;8.650;2023-06-26T14:55:49;99653.91;;;35.93;20.14
43119;BME280;28729;49.838;8.650;2023-06-26T14:59:52;99650.41;;;35.30;20.29
43119;BME280;28729;49.838;8.650;2023-06-26T15:03:56;99655.13;;;34.21;20.91
43119;BME280;28729;49.838;8.650;2023-06-26T15:07:58;99663.34;;;33.94;21.09
43119;BME280;28729;49.838;8.650;2023-06-26T15:12:00;99665.19;;;34.58;21.02
43119;BME280;28729;49.838;8.650;2023-06-26T15:16:02;99661.97;;;35.19;20.44
43119;BME280;28729;49.838;8.650;2023-06-26T15:20:04;99658.38;;;35.01;20.75
43119;BME280;28729;49.838;8.650;2023-06-26T15:24:09;99672.47;;;34.74;22.64
43119;BME280;28729;49.838;8.650;2023-06-26T15:28:11;99677.25;;;33.21;27.11
43119;BME280;28729;49.838;8.650;2023-06-26T15:32:15;99677.50;;;31.85;29.45
43119;BME280;28729;49.838;8.650;2023-06-26T15:36:18;99685.44;;;31.14;29.93
43119;BME280;28729;49.838;8.650;2023-06-26T15:40:22;99680.22;;;30.78;29.85
43119;BME280;28729;49.838;8.650;2023-06-26T15:44:24;99679.63;;;30.02;31.01
43119;BME280;28729;49.838;8.650;2023-06-26T15:48:28;99690.56;;;30.00;31.07
43119;BME280;28729;49.838;8.650;2023-06-26T15:52:30;99699.16;;;30.07;30.75
43119;BME280;28729;49.838;8.650;2023-06-26T15:56:32;99688.81;;;29.91;31.27
43119;BME280;28729;49.838;8.650;2023-06-26T16:00:34;99693.94;;;29.82;30.95
43119;BME280;28729;49.838;8.650;2023-06-26T16:04:36;99700.16;;;29.65;31.83
43119;BME280;28729;49.838;8.650;2023-06-26T16:08:39;99705.09;;;29.45;31.99
43119;BME280;28729;49.838;8.650;2023-06-26T16:12:42;99699.78;;;29.20;32.16
43119;BME280;28729;49.838;8.650;2023-06-26T16:16:44;99710.56;;;29.11;31.85
43119;BME280;28729;49.838;8.650;2023-06-26T16:20:45;99704.47;;;28.90;31.81
43119;BME280;28729;49.838;8.650;2023-06-26T16:24:48;99712.81;;;28.59;32.87
43119;BME280;28729;49.838;8.650;2023-06-26T16:28:50;99711.06;;;28.55;32.99
43119;BME280;28729;49.838;8.650;2023-06-26T16:32:53;99714.88;;;28.43;32.75
43119;BME280;28729;49.838;8.650;2023-06-26T16:36:55;99713.78;;;28.12;32.61
43119;BME280;28729;49.838;8.650;2023-06-26T16:40:57;99707.78;;;27.98;32.54
43119;BME280;28729;49.838;8.650;2023-06-26T16:44:59;99727.81;;;27.73;32.93
43119;BME280;28729;49.838;8.650;2023-06-26T16:49:01;99731.13;;;27.60;33.12
43119;BME280;28729;49.838;8.650;2023-06-26T16:53:04;99735.06;;;27.55;33.30
43119;BME280;28729;49.838;8.650;2023-06-26T16:57:06;99728.13;;;27.53;33.43
43119;BME280;28729;49.838;8.650;2023-06-26T17:01:09;99731.59;;;27.30;33.92
43119;BME280;28729;49.838;8.650;2023-06-26T17:05:12;99738.53;;;27.17;33.59
43119;BME280;28729;49.838;8.650;2023-06-26T17:09:14;99735.25;;;26.87;34.23
43119;BME280;28729;49.838;8.650;2023-06-26T17:13:16;99745.94;;;26.65;34.39
43119;BME280;28729;49.838;8.650;2023-06-26T17:17:18;99759.88;;;26.46;34.28
43119;BME280;28729;49.838;8.650;2023-06-26T17:21:23;99757.53;;;26.48;34.86
43119;BME280;28729;49.838;8.650;2023-06-26T17:25:25;99767.06;;;26.55;34.22
43119;BME280;28729;49.838;8.650;2023-06-26T17:29:26;99769.16;;;26.46;34.61
43119;BME280;28729;49.838;8.650;2023-06-26T17:33:28;99770.97;;;26.51;34.73
43119;BME280;28729;49.838;8.650;2023-06-26T17:37:30;99780.84;;;26.32;34.46
43119;BME280;28729;49.838;8.650;2023-06-26T17:41:34;99786.53;;;26.20;34.59
43119;BME280;28729;49.838;8.650;2023-06-26T17:45:36;99784.00;;;26.03;34.54
43119;BME280;28729;49.838;8.650;2023-06-26T17:49:40;99798.06;;;25.78;35.31
43119;BME280;28729;49.838;8.650;2023-06-26T17:53:42;99815.44;;;25.43;35.10
43119;BME280;28729;49.838;8.650;2023-06-26T17:57:44;99817.72;;;25.17;35.36
43119;BME280;28729;49.838;8.650;2023-06-26T18:01:48;99813.03;;;25.00;35.78
43119;BME280;28729;49.838;8.650;2023-06-26T18:05:53;99823.78;;;24.86;35.56
43119;BME280;28729;49.838;8.650;2023-06-26T18:09:55;99829.31;;;24.61;35.60
43119;BME280;28729;49.838;8.650;2023-06-26T18:13:57;99836.63;;;24.53;35.46
43119;BME280;28729;49.838;8.650;2023-06-26T18:18:01;99843.88;;;24.42;35.83
43119;BME280;28729;49.838;8.650;2023-06-26T18:22:03;99855.00;;;24.30;36.29
43119;BME280;28729;49.838;8.650;2023-06-26T18:26:05;99853.84;;;24.31;36.30
43119;BME280;28729;49.838;8.650;2023-06-26T18:30:08;99862.72;;;24.12;36.54
43119;BME280;28729;49.838;8.650;2023-06-26T18:34:12;99861.78;;;23.99;37.66
43119;BME280;28729;49.838;8.650;2023-06-26T18:38:15;99871.31;;;23.86;39.04
43119;BME280;28729;49.838;8.650;2023-06-26T18:42:17;99870.84;;;23.75;39.38
43119;BME280;28729;49.838;8.650;2023-06-26T18:46:20;99876.47;;;23.66;39.92
43119;BME280;28729;49.838;8.650;2023-06-26T18:50:24;99880.34;;;23.45;40.63
43119;BME280;28729;49.838;8.650;2023-06-26T18:54:31;99883.34;;;23.31;41.13
43119;BME280;28729;49.838;8.650;2023-06-26T18:58:35;99895.59;;;23.17;40.83
43119;BME280;28729;49.838;8.650;2023-06-26T19:02:38;99893.47;;;23.06;41.28
43119;BME280;28729;49.838;8.650;2023-06-26T19:06:43;99904.69;;;22.97;41.28
43119;BME280;28729;49.838;8.650;2023-06-26T19:10:45;99904.16;;;22.86;41.68
43119;BME280;28729;49.838;8.650;2023-06-26T19:14:48;99922.34;;;22.80;41.24
43119;BME280;28729;49.838;8.650;2023-06-26T19:18:51;99915.56;;;22.64;41.00
43119;BME280;28729;49.838;8.650;2023-06-26T19:22:58;99924.63;;;22.52;41.38
43119;BME280;28729;49.838;8.650;2023-06-26T19:27:02;99934.50;;;22.41;41.28
43119;BME280;28729;49.838;8.650;2023-06-26T19:31:08;99944.88;;;22.32;41.70
43119;BME280;28729;49.838;8.650;2023-06-26T19:35:10;99943.38;;;22.25;41.68
43119;BME280;28729;49.838;8.650;2023-06-26T19:39:14;99955.91;;;22.19;41.69
43119;BME280;28729;49.838;8.650;2023-06-26T19:43:33;99961.75;;;22.09;42.09
43119;BME280;28729;49.838;8.650;2023-06-26T19:47:35;99955.44;;;22.03;42.05
43119;BME280;28729;49.838;8.650;2023-06-26T19:51:38;99960.19;;;21.94;42.61
43119;BME280;28729;49.838;8.650;2023-06-26T19:55:40;99966.25;;;21.88;43.05
43119;BME280;28729;49.838;8.650;2023-06-26T19:59:42;99971.81;;;21.79;43.10
43119;BME280;28729;49.838;8.650;2023-06-26T20:03:45;99976.72;;;21.73;43.15
43119;BME280;28729;49.838;8.650;2023-06-26T20:07:48;99987.59;;;21.66;43.35
43119;BME280;28729;49.838;8.650;2023-06-26T20:11:53;99999.56;;;21.58;43.69
43119;BME280;28729;49.838;8.650;2023-06-26T20:15:55;100003.81;;;21.55;43.44
43119;BME280;28729;49.838;8.650;2023-06-26T20:20:05;100008.63;;;21.55;43.60
43119;BME280;28729;49.838;8.650;2023-06-26T20:24:08;100012.88;;;21.52;43.63
43119;BME280;28729;49.838;8.650;2023-06-26T20:28:10;100018.38;;;21.57;43.43
43119;BME280;28729;49.838;8.650;2023-06-26T20:32:13;100025.06;;;21.48;43.59
43119;BME280;28729;49.838;8.650;2023-06-26T20:36:15;100024.22;;;21.47;43.76
43119;BME280;28729;49.838;8.650;2023-06-26T20:40:17;100030.25;;;21.41;43.95
43119;BME280;28729;49.838;8.650;2023-06-26T20:44:20;100030.97;;;21.32;43.57
43119;BME280;28729;49.838;8.650;2023-06-26T20:48:22;100020.09;;;21.31;43.73
43119;BME280;28729;49.838;8.650;2023-06-26T20:52:27;100032.38;;;21.21;44.09
43119;BME280;28729;49.838;8.650;2023-06-26T20:56:29;100041.19;;;21.14;44.01
43119;BME280;28729;49.838;8.650;2023-06-26T21:00:31;100033.03;;;21.04;44.25
43119;BME280;28729;49.838;8.650;2023-06-26T21:04:33;100040.53;;;20.95;44.58
43119;BME280;28729;49.838;8.650;2023-06-26T21:08:39;100036.38;;;20.92;44.11
43119;BME280;28729;49.838;8.650;2023-06-26T21:12:41;100046.03;;;20.86;44.57
43119;BME280;28729;49.838;8.650;2023-06-26T21:16:45;100044.16;;;20.82;44.72
43119;BME280;28729;49.838;8.650;2023-06-26T21:20:47;100045.75;;;20.74;44.99
43119;BME280;28729;49.838;8.650;2023-06-26T21:24:49;100054.75;;;20.71;45.13
43119;BME280;28729;49.838;8.650;2023-06-26T21:28:52;100049.25;;;20.66;45.02
43119;BME280;28729;49.838;8.650;2023-06-26T21:32:53;100052.78;;;20.58;45.83
43119;BME280;28729;49.838;8.650;2023-06-26T21:36:56;100061.88;;;20.49;45.58
43119;BME280;28729;49.838;8.650;2023-06-26T21:40:59;100060.63;;;20.42;45.66
43119;BME280;28729;49.838;8.650;2023-06-26T21:45:00;100072.44;;;20.39;46.03